Time;durP1;ratioP1;P1;durP2;ratioP2;P2;SDS_P1;SDS_P2;PMS_P1;PMS_P2;Temp;Humidity;BMP_temperature;BMP_pressure;BME280_temperature;BME280_humidity;BME280_pressure;Samples;Min_cycle;Max_cycle;Signal;HPM_P1;HPM_P2
2022/10/09 00:03:15;;;;;;;;;;;;;;;14.31;100.00;100928.94;10063413;29;19938;-71
2022/10/09 00:08:19;;;;;;;;;;;;;;;14.19;100.00;100936.94;10063318;29;20052;-69
2022/10/09 00:13:23;;;;;;;;;;;;;;;14.30;100.00;100937.69;10063253;29;19935;-73
2022/10/09 00:18:26;;;;;;;;;;;;;;;14.12;100.00;100944.00;10063130;29;20364;-71
2022/10/09 00:23:29;;;;;;;;;;;;;;;14.23;100.00;100943.84;10062920;29;19932;-69
2022/10/09 00:28:34;;;;;;;;;;;;;;;14.22;100.00;100956.03;10062473;29;20012;-70
2022/10/09 00:33:41;;;;;;;;;;;;;;;14.15;100.00;100948.34;10062569;29;20255;-71
2022/10/09 00:38:44;;;;;;;;;;;;;;;14.06;100.00;100949.34;10062641;29;19928;-69
2022/10/09 00:43:49;;;;;;;;;;;;;;;14.09;100.00;100949.28;10062077;29;20281;-69
2022/10/09 00:48:57;;;;;;;;;;;;;;;14.12;100.00;100943.13;10061762;29;19938;-71
2022/10/09 00:54:01;;;;;;;;;;;;;;;14.21;100.00;100945.63;10061768;29;19938;-70
2022/10/09 00:59:05;;;;;;;;;;;;;;;14.30;100.00;100953.34;10064273;29;19928;-72
2022/10/09 01:04:09;;;;;;;;;;;;;;;14.10;100.00;100955.38;10064923;29;20030;-69
2022/10/09 01:09:14;;;;;;;;;;;;;;;14.13;100.00;100961.41;10064411;29;19939;-69
2022/10/09 01:14:23;;;;;;;;;;;;;;;14.10;100.00;100974.50;10064242;29;19938;-68
2022/10/09 01:19:42;;;;;;;;;;;;;;;13.99;100.00;100976.41;10064018;29;19928;-69
2022/10/09 01:24:48;;;;;;;;;;;;;;;13.88;100.00;100979.16;10063008;29;20019;-68
2022/10/09 01:29:55;;;;;;;;;;;;;;;13.89;100.00;100988.72;9726878;29;10000105;-69
2022/10/09 01:34:59;;;;;;;;;;;;;;;13.77;100.00;100988.03;10060221;29;19928;-67
2022/10/09 01:40:03;;;;;;;;;;;;;;;13.75;100.00;100993.25;10059973;29;19935;-65
2022/10/09 01:45:08;;;;;;;;;;;;;;;13.79;100.00;100997.53;10059917;29;20022;-68
2022/10/09 01:50:15;;;;;;;;;;;;;;;13.77;100.00;100999.31;10062022;29;20059;-66
2022/10/09 01:55:23;;;;;;;;;;;;;;;13.71;100.00;101004.63;10062858;29;19928;-68
2022/10/09 02:00:30;;;;;;;;;;;;;;;13.52;100.00;101010.06;10062958;29;19969;-70
2022/10/09 02:05:34;;;;;;;;;;;;;;;13.50;100.00;101010.09;10062597;29;19929;-68
2022/10/09 02:10:37;;;;;;;;;;;;;;;13.54;100.00;101022.22;10062549;29;19995;-69
2022/10/09 02:15:47;;;;;;;;;;;;;;;13.52;100.00;101026.59;10062319;29;19939;-72
2022/10/09 02:20:51;;;;;;;;;;;;;;;13.47;100.00;101031.00;10062055;29;19932;-69
2022/10/09 02:25:54;;;;;;;;;;;;;;;13.43;100.00;101025.81;10062044;29;20431;-70
2022/10/09 02:31:03;;;;;;;;;;;;;;;13.31;100.00;101034.63;10062785;29;19939;-69
2022/10/09 02:36:06;;;;;;;;;;;;;;;13.26;100.00;101045.97;10069632;29;19928;-71
2022/10/09 02:41:09;;;;;;;;;;;;;;;13.25;100.00;101050.34;10069781;29;20027;-71
2022/10/09 02:46:14;;;;;;;;;;;;;;;13.02;100.00;101057.50;10069574;29;19928;-68
2022/10/09 02:51:17;;;;;;;;;;;;;;;13.08;100.00;101062.66;10069417;29;20398;-70
2022/10/09 02:56:21;;;;;;;;;;;;;;;12.93;100.00;101074.91;10069474;29;19943;-69
2022/10/09 03:01:25;;;;;;;;;;;;;;;12.86;100.00;101076.72;10068896;29;19928;-70
2022/10/09 03:06:29;;;;;;;;;;;;;;;12.84;100.00;101093.25;10068789;29;20397;-67
2022/10/09 03:11:32;;;;;;;;;;;;;;;12.71;100.00;101095.94;10068824;29;20409;-68
2022/10/09 03:16:37;;;;;;;;;;;;;;;12.69;100.00;101102.03;10068543;29;19928;-69
2022/10/09 03:21:40;;;;;;;;;;;;;;;12.57;100.00;101099.50;10068314;29;20319;-66
2022/10/09 03:26:43;;;;;;;;;;;;;;;12.60;100.00;101107.28;10068140;29;20409;-67
2022/10/09 03:31:47;;;;;;;;;;;;;;;12.51;100.00;101115.19;10067991;29;19928;-69
2022/10/09 03:36:55;;;;;;;;;;;;;;;12.39;100.00;101112.66;10068020;29;20023;-69
2022/10/09 03:41:58;;;;;;;;;;;;;;;12.34;100.00;101109.16;10067784;29;19929;-68
2022/10/09 03:47:02;;;;;;;;;;;;;;;12.43;100.00;101107.41;10066518;29;19988;-68
2022/10/09 03:52:05;;;;;;;;;;;;;;;12.30;100.00;101126.56;10067247;29;19995;-70
2022/10/09 03:57:08;;;;;;;;;;;;;;;12.29;100.00;101129.16;10067013;29;19928;-70
2022/10/09 04:02:13;;;;;;;;;;;;;;;12.28;100.00;101135.25;10066707;29;19932;-69
2022/10/09 04:07:16;;;;;;;;;;;;;;;12.28;100.00;101137.84;10066890;29;19995;-69
2022/10/09 04:12:19;;;;;;;;;;;;;;;12.36;100.00;101144.75;10066436;29;20307;-67
2022/10/09 04:17:23;;;;;;;;;;;;;;;12.27;100.00;101146.53;10066435;29;20302;-69
2022/10/09 04:22:26;;;;;;;;;;;;;;;12.28;100.00;101148.25;10066099;29;20307;-69
2022/10/09 04:27:29;;;;;;;;;;;;;;;12.24;100.00;101152.63;10065823;29;20247;-71
2022/10/09 04:32:34;;;;;;;;;;;;;;;12.19;100.00;101159.56;10065809;29;20299;-69
2022/10/09 04:37:37;;;;;;;;;;;;;;;12.06;100.00;101163.06;10065643;29;19939;-69
2022/10/09 04:42:40;;;;;;;;;;;;;;;12.05;100.00;101171.75;10065436;29;19974;-68
2022/10/09 04:47:44;;;;;;;;;;;;;;;12.03;100.00;101183.91;10065035;29;20307;-67
2022/10/09 04:52:47;;;;;;;;;;;;;;;12.12;100.00;101190.81;10065101;29;19928;-67
2022/10/09 04:57:51;;;;;;;;;;;;;;;12.31;100.00;101189.88;10064769;29;19940;-70
2022/10/09 05:02:55;;;;;;;;;;;;;;;12.11;100.00;101205.59;10064434;29;19928;-71
2022/10/09 05:07:58;;;;;;;;;;;;;;;12.10;100.00;101202.97;10064392;29;19940;-70
2022/10/09 05:13:01;;;;;;;;;;;;;;;12.16;100.00;101202.97;10064354;29;19952;-69
2022/10/09 05:18:06;;;;;;;;;;;;;;;12.20;100.00;101217.72;10063936;29;19968;-68
2022/10/09 05:23:09;;;;;;;;;;;;;;;12.10;100.00;101240.28;10063913;29;19928;-70
2022/10/09 05:28:12;;;;;;;;;;;;;;;11.98;100.00;101248.09;10063778;29;20347;-67
2022/10/09 05:33:17;;;;;;;;;;;;;;;12.03;100.00;101254.16;10063596;29;20258;-68
2022/10/09 05:38:20;;;;;;;;;;;;;;;12.07;100.00;101249.81;10063382;29;19928;-69
2022/10/09 05:43:23;;;;;;;;;;;;;;;12.14;100.00;101259.34;10063153;29;19928;-68
2022/10/09 05:48:28;;;;;;;;;;;;;;;12.40;100.00;101267.97;10063029;29;19928;-70
2022/10/09 05:53:32;;;;;;;;;;;;;;;12.44;100.00;101274.91;10062826;29;20374;-70
2022/10/09 05:58:35;;;;;;;;;;;;;;;12.33;100.00;101281.88;10062802;29;20333;-69
2022/10/09 06:03:39;;;;;;;;;;;;;;;12.38;100.00;101291.41;10062562;29;19929;-72
2022/10/09 06:08:42;;;;;;;;;;;;;;;12.39;100.00;101293.13;10061858;29;19932;-69
2022/10/09 06:13:46;;;;;;;;;;;;;;;12.36;100.00;101303.53;10062375;29;19928;-69
2022/10/09 06:18:52;;;;;;;;;;;;;;;12.53;100.00;101311.31;10062250;29;19935;-71
2022/10/09 06:23:56;;;;;;;;;;;;;;;12.50;100.00;101316.53;10062196;29;20019;-69
2022/10/09 06:29:00;;;;;;;;;;;;;;;12.55;100.00;101319.97;10062029;29;20023;-67
2022/10/09 06:34:04;;;;;;;;;;;;;;;12.47;100.00;101327.84;10061944;29;20342;-69
2022/10/09 06:39:08;;;;;;;;;;;;;;;12.43;99.51;101346.06;10062246;29;19985;-68
2022/10/09 06:44:12;;;;;;;;;;;;;;;12.47;99.97;101359.09;10061720;29;20000;-68
2022/10/09 06:49:20;;;;;;;;;;;;;;;12.43;98.43;101361.66;10061645;29;20273;-69
2022/10/09 06:54:23;;;;;;;;;;;;;;;12.60;98.54;101359.91;10061514;29;19983;-71
2022/10/09 06:59:26;;;;;;;;;;;;;;;12.60;98.01;101371.19;10061189;29;20569;-71
2022/10/09 07:04:30;;;;;;;;;;;;;;;12.79;97.16;101385.91;9382124;29;10000814;-68
2022/10/09 07:09:33;;;;;;;;;;;;;;;12.82;96.02;101388.50;10019869;29;19929;-71
2022/10/09 07:14:36;;;;;;;;;;;;;;;12.87;96.12;101398.94;10020542;29;19932;-72
2022/10/09 07:19:41;;;;;;;;;;;;;;;12.87;95.37;101400.66;10022979;29;19928;-68
2022/10/09 07:24:44;;;;;;;;;;;;;;;12.82;94.14;101402.41;10027244;29;20031;-68
2022/10/09 07:29:47;;;;;;;;;;;;;;;12.72;92.12;101409.34;10026666;29;19928;-71
2022/10/09 07:34:51;;;;;;;;;;;;;;;12.78;91.25;101409.38;10026418;29;19929;-70
2022/10/09 07:39:55;;;;;;;;;;;;;;;12.73;89.64;101426.75;10026287;29;20517;-72
2022/10/09 07:44:58;;;;;;;;;;;;;;;12.82;90.07;101431.94;10026162;29;19929;-69
2022/10/09 07:50:02;;;;;;;;;;;;;;;12.88;88.83;101433.66;10026564;29;19987;-69
2022/10/09 07:55:05;;;;;;;;;;;;;;;12.91;88.48;101439.72;10025796;29;20274;-69
2022/10/09 08:00:09;;;;;;;;;;;;;;;12.98;87.67;101436.22;10025388;29;20043;-71
2022/10/09 08:05:14;;;;;;;;;;;;;;;13.03;88.25;101451.91;10039306;29;20297;-67
2022/10/09 08:10:17;;;;;;;;;;;;;;;13.02;89.19;101448.41;10063356;29;19967;-69
2022/10/09 08:15:20;;;;;;;;;;;;;;;12.94;89.22;101457.97;10063456;29;19928;-72
2022/10/09 08:20:25;;;;;;;;;;;;;;;13.00;89.19;101470.09;10063566;29;20018;-69
2022/10/09 08:25:28;;;;;;;;;;;;;;;13.07;89.03;101474.47;10062931;29;19928;-69
2022/10/09 08:30:31;;;;;;;;;;;;;;;13.08;89.73;101469.25;10062145;29;20022;-68
2022/10/09 08:35:36;;;;;;;;;;;;;;;13.27;89.48;101486.56;10062524;29;19928;-70
2022/10/09 08:40:42;;;;;;;;;;;;;;;13.18;89.21;101483.13;10062371;29;20343;-71
2022/10/09 08:45:46;;;;;;;;;;;;;;;13.24;89.34;101501.34;10062686;29;20036;-67
2022/10/09 08:50:53;;;;;;;;;;;;;;;13.25;89.29;101503.97;10061856;29;19932;-68
2022/10/09 08:55:57;;;;;;;;;;;;;;;13.30;87.79;101512.66;10061482;29;19936;-69
2022/10/09 09:01:02;;;;;;;;;;;;;;;13.35;87.27;101513.50;10061009;29;19988;-70
2022/10/09 09:06:09;;;;;;;;;;;;;;;13.55;86.11;101509.09;10062064;29;19928;-70
2022/10/09 09:11:17;;;;;;;;;;;;;;;13.52;86.01;101513.44;10061187;29;20027;-68
2022/10/09 09:16:28;;;;;;;;;;;;;;;13.55;85.44;101509.09;10061557;29;19942;-66
2022/10/09 09:21:37;;;;;;;;;;;;;;;13.44;85.12;101505.63;10060683;29;20266;-68
2022/10/09 09:26:42;;;;;;;;;;;;;;;13.57;85.28;101509.06;10060673;29;19935;-70
2022/10/09 09:31:46;;;;;;;;;;;;;;;13.68;85.33;101515.97;10060503;29;20031;-68
2022/10/09 09:36:52;;;;;;;;;;;;;;;13.59;85.73;101526.47;10060131;29;19984;-69
2022/10/09 09:42:00;;;;;;;;;;;;;;;13.60;86.15;101525.56;10060736;29;19943;-71
2022/10/09 09:47:03;;;;;;;;;;;;;;;13.68;86.36;101526.41;10062994;29;20015;-71
2022/10/09 09:52:08;;;;;;;;;;;;;;;13.72;86.78;101535.97;10062922;29;20038;-69
2022/10/09 09:57:12;;;;;;;;;;;;;;;13.71;85.80;101538.59;9724363;29;10000462;-68
2022/10/09 10:02:22;;;;;;;;;;;;;;;13.61;84.36;101540.38;10059062;29;20019;-69
2022/10/09 10:07:31;;;;;;;;;;;;;;;13.77;84.71;101546.41;10059132;29;19972;-68
2022/10/09 10:12:39;;;;;;;;;;;;;;;13.69;83.93;101558.59;10059131;29;20362;-66
2022/10/09 10:17:42;;;;;;;;;;;;;;;13.65;84.67;101564.72;10059074;29;20015;-68
2022/10/09 10:22:53;;;;;;;;;;;;;;;13.66;84.14;101551.66;10058990;29;20228;-68
2022/10/09 10:27:58;;;;;;;;;;;;;;;13.70;83.73;101557.75;10059104;29;19943;-68
2022/10/09 10:33:03;;;;;;;;;;;;;;;13.70;83.87;101558.59;10058591;29;19928;-68
2022/10/09 10:38:14;;;;;;;;;;;;;;;13.84;83.50;101569.84;10058602;29;19928;-68
2022/10/09 10:43:25;;;;;;;;;;;;;;;13.89;83.12;101575.06;10058411;29;19943;-68
2022/10/09 10:48:29;;;;;;;;;;;;;;;13.84;83.20;101567.22;10058435;29;19948;-71
2022/10/09 10:53:41;;;;;;;;;;;;;;;13.90;84.34;101575.06;10060229;29;19936;-70
2022/10/09 10:58:50;;;;;;;;;;;;;;;13.88;85.01;101584.63;10065851;29;19942;-70
2022/10/09 11:04:03;;;;;;;;;;;;;;;13.71;85.26;101598.59;10065800;29;19942;-70
2022/10/09 11:09:13;;;;;;;;;;;;;;;13.81;85.40;101587.25;10064895;29;19971;-68
2022/10/09 11:14:26;;;;;;;;;;;;;;;13.89;84.50;101591.56;10065311;29;19947;-69
2022/10/09 11:19:49;;;;;;;;;;;;;;;13.81;83.30;101593.34;10065515;29;20549;-68
2022/10/09 11:25:01;;;;;;;;;;;;;;;13.86;81.89;101588.09;10060788;29;19950;-68
2022/10/09 11:30:06;;;;;;;;;;;;;;;13.90;80.89;101582.88;10064629;29;19966;-70
2022/10/09 11:35:15;;;;;;;;;;;;;;;13.71;80.22;101585.56;10064503;29;19928;-68
2022/10/09 11:40:22;;;;;;;;;;;;;;;13.73;81.12;101587.28;10064284;29;19943;-69
2022/10/09 11:45:29;;;;;;;;;;;;;;;13.69;80.81;101588.16;10064295;29;20015;-67
2022/10/09 11:50:42;;;;;;;;;;;;;;;13.82;81.02;101586.41;10064407;29;19980;-71
2022/10/09 11:55:47;;;;;;;;;;;;;;;13.80;81.45;101582.91;10063818;29;19939;-68
2022/10/09 12:00:52;;;;;;;;;;;;;;;13.85;81.97;101582.03;10063451;29;19964;-68
2022/10/09 12:06:03;;;;;;;;;;;;;;;14.00;82.34;101588.03;10062690;29;19932;-71
2022/10/09 12:11:12;;;;;;;;;;;;;;;14.03;81.78;101585.44;10063327;29;19932;-70
2022/10/09 12:16:33;;;;;;;;;;;;;;;14.06;81.61;101590.63;10063371;29;20003;-63
2022/10/09 12:21:37;;;;;;;;;;;;;;;14.06;81.41;101591.50;10063254;29;20023;-64
2022/10/09 12:26:42;;;;;;;;;;;;;;;14.14;80.26;101581.00;10062581;29;19928;-70
2022/10/09 12:31:46;;;;;;;;;;;;;;;14.04;80.06;101580.22;10062436;29;20368;-67
2022/10/09 12:36:49;;;;;;;;;;;;;;;13.94;79.82;101574.13;10062167;29;19929;-69
2022/10/09 12:41:57;;;;;;;;;;;;;;;14.21;79.45;101573.16;10061905;29;19968;-70
2022/10/09 12:47:02;;;;;;;;;;;;;;;14.80;76.85;101572.78;10062501;29;20011;-72
2022/10/09 12:52:13;;;;;;;;;;;;;;;14.63;77.68;101582.50;10061377;29;20350;-71
2022/10/09 12:57:18;;;;;;;;;;;;;;;14.56;76.51;101581.69;10056264;29;19939;-73
2022/10/09 13:02:25;;;;;;;;;;;;;;;14.79;74.94;101584.09;10061183;29;19989;-68
2022/10/09 13:07:31;;;;;;;;;;;;;;;14.75;74.51;101578.03;10061204;29;19980;-70
2022/10/09 13:12:36;;;;;;;;;;;;;;;15.95;70.28;101581.22;10060954;29;19929;-70
2022/10/09 13:17:40;;;;;;;;;;;;;;;16.29;69.47;101576.38;10061251;29;19929;-72
2022/10/09 13:22:52;;;;;;;;;;;;;;;15.83;70.99;101576.13;10060690;29;20248;-67
2022/10/09 13:27:57;;;;;;;;;;;;;;;15.68;71.27;101584.19;10060516;29;20131;-67
2022/10/09 13:33:00;;;;;;;;;;;;;;;15.42;72.16;101580.97;10060097;29;20343;-67
2022/10/09 13:38:03;;;;;;;;;;;;;;;15.05;73.17;101579.53;10060612;29;19928;-67
2022/10/09 13:43:07;;;;;;;;;;;;;;;15.20;73.94;101570.69;10060218;29;20027;-65
2022/10/09 13:48:10;;;;;;;;;;;;;;;15.02;74.60;101569.09;10059751;29;20340;-65
2022/10/09 13:53:13;;;;;;;;;;;;;;;15.12;74.41;101575.13;10059665;29;20035;-68
2022/10/09 13:58:18;;;;;;;;;;;;;;;15.01;74.63;101567.38;10059564;29;20019;-66
2022/10/09 14:03:21;;;;;;;;;;;;;;;14.79;74.77;101566.69;10059296;29;19938;-70
2022/10/09 14:08:24;;;;;;;;;;;;;;;14.74;75.33;101567.59;10059347;29;20330;-71
2022/10/09 14:13:29;;;;;;;;;;;;;;;14.80;76.01;101570.19;10059380;29;20023;-72
2022/10/09 14:18:32;;;;;;;;;;;;;;;14.72;76.34;101575.44;10035229;29;20035;-70
2022/10/09 14:23:35;;;;;;;;;;;;;;;14.67;76.29;101568.50;10020595;29;20256;-72
2022/10/09 14:28:40;;;;;;;;;;;;;;;14.50;76.53;101568.66;10020092;29;19940;-72
2022/10/09 14:33:43;;;;;;;;;;;;;;;14.47;76.37;101566.06;10020426;29;20056;-72
2022/10/09 14:38:47;;;;;;;;;;;;;;;14.41;76.61;101570.47;10023726;29;19979;-72
2022/10/09 14:43:55;;;;;;;;;;;;;;;14.31;77.25;101567.03;10058584;29;20050;-68
2022/10/09 14:48:58;;;;;;;;;;;;;;;14.17;77.93;101563.59;10058127;29;20421;-69
2022/10/09 14:54:02;;;;;;;;;;;;;;;14.24;77.35;101573.13;10058084;29;19928;-68
2022/10/09 14:59:06;;;;;;;;;;;;;;;14.19;77.44;101571.41;10058049;29;19959;-69
2022/10/09 15:04:09;;;;;;;;;;;;;;;14.11;77.86;101581.91;10057488;29;19977;-71
2022/10/09 15:09:12;;;;;;;;;;;;;;;14.09;78.04;101580.16;10058325;29;19928;-71
2022/10/09 15:14:17;;;;;;;;;;;;;;;14.07;77.98;101581.91;10057901;29;19943;-71
2022/10/09 15:19:20;;;;;;;;;;;;;;;14.15;78.48;101590.59;10057784;29;20026;-69
2022/10/09 15:24:23;;;;;;;;;;;;;;;14.10;78.25;101593.22;10057662;29;19982;-70
2022/10/09 15:29:27;;;;;;;;;;;;;;;13.97;78.89;101585.44;10057700;29;20416;-71
2022/10/09 15:34:30;;;;;;;;;;;;;;;13.99;79.33;101591.53;10057507;29;19928;-66
2022/10/09 15:39:34;;;;;;;;;;;;;;;13.88;79.74;101587.22;10057710;29;19932;-69
2022/10/09 15:44:41;;;;;;;;;;;;;;;13.81;80.53;101593.34;10064356;29;19932;-70
2022/10/09 15:49:44;;;;;;;;;;;;;;;13.72;81.78;101602.94;10064040;29;19928;-69
2022/10/09 15:54:49;;;;;;;;;;;;;;;13.73;81.55;101610.78;10063894;29;19928;-68
2022/10/09 15:59:54;;;;;;;;;;;;;;;13.62;82.46;101607.31;10063519;29;20015;-70
2022/10/09 16:04:57;;;;;;;;;;;;;;;13.48;82.40;101605.59;10063698;29;19939;-71
2022/10/09 16:10:00;;;;;;;;;;;;;;;13.37;82.29;101613.47;10063677;29;19934;-68
2022/10/09 16:15:05;;;;;;;;;;;;;;;13.30;82.79;101611.75;10063200;29;20027;-67
2022/10/09 16:20:08;;;;;;;;;;;;;;;13.24;82.93;101624.75;10063131;29;19928;-69
2022/10/09 16:25:12;;;;;;;;;;;;;;;13.17;83.34;101629.97;10062963;29;19938;-71
2022/10/09 16:30:16;;;;;;;;;;;;;;;13.17;83.65;101633.47;10062680;29;19928;-70
2022/10/09 16:35:19;;;;;;;;;;;;;;;13.12;84.89;101634.31;10063012;29;19928;-69
2022/10/09 16:40:22;;;;;;;;;;;;;;;13.02;86.23;101641.28;10059647;29;19942;-67
2022/10/09 16:45:47;;;;;;;;;;;;;;;12.87;88.20;101636.03;10059364;29;19956;-72
2022/10/09 16:50:50;;;;;;;;;;;;;;;12.86;87.45;101643.84;10058609;29;19950;-70
2022/10/09 16:55:53;;;;;;;;;;;;;;;12.78;88.11;101642.09;10061290;29;20330;-71
2022/10/09 17:01:01;;;;;;;;;;;;;;;12.71;88.03;101640.34;10062022;29;19942;-71
2022/10/09 17:06:12;;;;;;;;;;;;;;;12.49;89.12;101655.94;10062114;29;19932;-67
2022/10/09 17:11:16;;;;;;;;;;;;;;;12.48;90.60;101659.38;10061149;29;19928;-64
2022/10/09 17:16:21;;;;;;;;;;;;;;;12.44;90.43;101653.28;10061172;29;20447;-67
2022/10/09 17:21:24;;;;;;;;;;;;;;;12.37;90.86;101664.53;10061227;29;20027;-67
2022/10/09 17:26:35;;;;;;;;;;;;;;;12.22;91.60;101661.91;10061173;29;20026;-69
2022/10/09 17:31:39;;;;;;;;;;;;;;;12.18;92.78;101667.09;10060799;29;19972;-72
2022/10/09 17:36:43;;;;;;;;;;;;;;;12.09;93.40;101670.53;10060423;29;19928;-67
2022/10/09 17:41:47;;;;;;;;;;;;;;;12.17;93.33;101676.63;10059986;29;19938;-68
2022/10/09 17:46:52;;;;;;;;;;;;;;;12.10;92.80;101679.19;10059961;29;19928;-69
2022/10/09 17:51:55;;;;;;;;;;;;;;;12.09;92.67;101678.34;10059610;29;19936;-69
2022/10/09 17:56:59;;;;;;;;;;;;;;;12.02;93.37;101680.88;10059465;29;19940;-72
2022/10/09 18:02:04;;;;;;;;;;;;;;;11.83;95.06;101689.44;10059488;29;20027;-72
2022/10/09 18:07:07;;;;;;;;;;;;;;;11.80;95.40;101690.31;10058720;29;20260;-69
2022/10/09 18:12:10;;;;;;;;;;;;;;;11.90;94.94;101693.81;10059072;29;20027;-72
2022/10/09 18:17:14;;;;;;;;;;;;;;;11.92;93.37;101681.69;10059017;29;20368;-70
2022/10/09 18:22:17;;;;;;;;;;;;;;;11.87;94.01;101686.00;10058894;29;20371;-70
2022/10/09 18:27:22;;;;;;;;;;;;;;;11.72;93.79;101686.78;10058992;29;19963;-70
2022/10/09 18:32:27;;;;;;;;;;;;;;;11.65;94.71;101694.53;10058755;29;20015;-71
2022/10/09 18:37:30;;;;;;;;;;;;;;;11.59;94.56;101696.22;10058378;29;20418;-74
2022/10/09 18:42:34;;;;;;;;;;;;;;;11.57;94.67;101694.44;10058378;29;19938;-72
2022/10/09 18:47:39;;;;;;;;;;;;;;;11.46;95.15;101691.75;10058348;29;20340;-72
2022/10/09 18:52:43;;;;;;;;;;;;;;;11.43;96.47;101704.75;10058292;29;19932;-72
2022/10/09 18:57:47;;;;;;;;;;;;;;;11.29;97.54;101710.66;10058818;29;19928;-70
2022/10/09 19:02:51;;;;;;;;;;;;;;;11.27;97.17;101718.47;10058028;29;19929;-71
2022/10/09 19:07:54;;;;;;;;;;;;;;;11.15;98.40;101725.25;10058051;29;19938;-71
2022/10/09 19:12:59;;;;;;;;;;;;;;;11.23;98.33;101727.06;10058216;29;20210;-74
2022/10/09 19:18:04;;;;;;;;;;;;;;;11.31;97.42;101735.84;10064394;29;20007;-73
2022/10/09 19:23:08;;;;;;;;;;;;;;;11.32;96.69;101727.16;10065461;29;20023;-73
2022/10/09 19:28:11;;;;;;;;;;;;;;;11.23;97.03;101723.63;10065188;29;20015;-72
2022/10/09 19:33:16;;;;;;;;;;;;;;;11.14;97.18;101734.81;10064808;29;20027;-74
2022/10/09 19:38:19;;;;;;;;;;;;;;;11.12;97.83;101733.03;10064704;29;20405;-73
2022/10/09 19:43:24;;;;;;;;;;;;;;;11.10;97.89;101726.94;10058158;29;20027;-71
2022/10/09 19:48:28;;;;;;;;;;;;;;;11.07;97.42;101739.91;10026126;29;20270;-73
2022/10/09 19:53:31;;;;;;;;;;;;;;;10.99;97.39;101745.03;10026226;29;19932;-72
2022/10/09 19:58:34;;;;;;;;;;;;;;;11.02;97.54;101739.00;10025684;29;19940;-72
2022/10/09 20:03:39;;;;;;;;;;;;;;;10.99;98.07;101739.84;10025490;29;19943;-74
2022/10/09 20:08:44;;;;;;;;;;;;;;;10.94;97.41;101738.06;10025746;29;20278;-74
2022/10/09 20:13:47;;;;;;;;;;;;;;;10.88;97.57;101744.06;10025136;29;19937;-72
2022/10/09 20:18:58;;;;;;;;;;;;;;;10.82;97.44;101743.13;10025511;29;19992;-73
2022/10/09 20:24:01;;;;;;;;;;;;;;;10.76;97.81;101753.44;10024789;29;20217;-71
2022/10/09 20:29:05;;;;;;;;;;;;;;;10.73;97.25;101746.50;10023918;29;19964;-72
2022/10/09 20:34:10;;;;;;;;;;;;;;;10.61;98.51;101754.16;10024395;29;19944;-71
2022/10/09 20:39:14;;;;;;;;;;;;;;;10.53;98.35;101752.31;10030499;29;20629;-72
2022/10/09 20:44:17;;;;;;;;;;;;;;;10.55;97.94;101753.16;10056031;29;19932;-71
2022/10/09 20:49:21;;;;;;;;;;;;;;;10.53;98.57;101758.34;10049199;29;20035;-71
2022/10/09 20:54:25;;;;;;;;;;;;;;;10.49;98.14;101757.44;10061716;29;19947;-74
2022/10/09 20:59:28;;;;;;;;;;;;;;;10.49;98.19;101751.41;10061477;29;20023;-71
2022/10/09 21:04:33;;;;;;;;;;;;;;;10.45;97.62;101754.78;10061375;29;19928;-71
2022/10/09 21:09:36;;;;;;;;;;;;;;;10.34;98.40;101758.97;10061130;29;19964;-73
2022/10/09 21:14:39;;;;;;;;;;;;;;;10.35;99.39;101758.97;10061602;29;20024;-72
2022/10/09 21:19:44;;;;;;;;;;;;;;;10.33;98.83;101755.53;10060978;29;19935;-70
2022/10/09 21:24:47;;;;;;;;;;;;;;;10.25;99.19;101749.34;10060976;29;19928;-72
2022/10/09 21:29:50;;;;;;;;;;;;;;;10.19;98.74;101758.75;10060710;29;20687;-71
2022/10/09 21:34:55;;;;;;;;;;;;;;;10.22;99.78;101753.63;10060453;29;20072;-72
2022/10/09 21:39:58;;;;;;;;;;;;;;;10.24;100.00;101754.50;10060235;29;19928;-75
2022/10/09 21:45:01;;;;;;;;;;;;;;;10.22;99.58;101748.41;10060544;29;19974;-72
2022/10/09 21:50:06;;;;;;;;;;;;;;;10.13;99.69;101743.13;10060001;29;19928;-72
2022/10/09 21:55:09;;;;;;;;;;;;;;;9.97;99.40;101743.72;10060213;29;20004;-66
2022/10/09 22:00:12;;;;;;;;;;;;;;;9.92;99.82;101763.53;10059639;29;19932;-73
2022/10/09 22:05:17;;;;;;;;;;;;;;;9.96;99.53;101754.94;10059480;29;19928;-71
2022/10/09 22:10:21;;;;;;;;;;;;;;;9.89;100.00;101753.09;10059736;29;19934;-71
2022/10/09 22:15:24;;;;;;;;;;;;;;;9.72;100.00;101759.75;10059210;29;19928;-70
2022/10/09 22:20:28;;;;;;;;;;;;;;;9.76;100.00;101762.44;10059029;29;19938;-68
2022/10/09 22:25:31;;;;;;;;;;;;;;;9.75;100.00;101765.84;10058900;29;19940;-73
2022/10/09 22:30:35;;;;;;;;;;;;;;;9.98;100.00;101764.50;10058775;29;19942;-71
2022/10/09 22:35:40;;;;;;;;;;;;;;;9.91;100.00;101767.84;10058737;29;19932;-73
2022/10/09 22:40:43;;;;;;;;;;;;;;;9.91;100.00;101769.53;10059040;29;19929;-71
2022/10/09 22:45:49;;;;;;;;;;;;;;;9.73;100.00;101767.56;10058779;29;20346;-70
2022/10/09 22:50:53;;;;;;;;;;;;;;;9.66;100.00;101777.81;10062110;29;20409;-73
2022/10/09 22:55:56;;;;;;;;;;;;;;;9.72;100.00;101780.47;10066226;29;19951;-74
2022/10/09 23:01:01;;;;;;;;;;;;;;;9.64;99.74;101775.19;10066408;29;20010;-72
2022/10/09 23:06:07;;;;;;;;;;;;;;;9.59;99.23;101781.13;10068877;29;20250;-73
2022/10/09 23:11:11;;;;;;;;;;;;;;;9.43;99.78;101776.53;10069331;29;19999;-72
2022/10/09 23:16:14;;;;;;;;;;;;;;;9.45;100.00;101773.13;10068573;29;19938;-74
2022/10/09 23:21:20;;;;;;;;;;;;;;;9.45;100.00;101769.66;10068893;29;19936;-73
2022/10/09 23:26:24;;;;;;;;;;;;;;;9.38;100.00;101753.16;10068552;29;19939;-73
2022/10/09 23:31:28;;;;;;;;;;;;;;;9.33;100.00;101767.75;10068360;29;19928;-73
2022/10/09 23:36:33;;;;;;;;;;;;;;;9.24;99.96;101760.69;10068062;29;19928;-70
2022/10/09 23:41:37;;;;;;;;;;;;;;;9.28;100.00;101752.09;10067791;29;19929;-72
2022/10/09 23:46:40;;;;;;;;;;;;;;;9.24;99.24;101764.97;10067688;29;19943;-74
2022/10/09 23:51:46;;;;;;;;;;;;;;;9.13;100.00;101759.59;10067556;29;19928;-73
2022/10/09 23:56:49;;;;;;;;;;;;;;;9.16;100.00;101758.81;10068063;29;19928;-72
